sensor_id;sensor_type;location;lat;lon;timestamp;P1;durP1;ratioP1;P2;durP2;ratioP2
12896;SDS011;6516;35.028;32.372;2023-01-09T00:01:21;19.35;;;12.68;;
12896;SDS011;6516;35.028;32.372;2023-01-09T00:03:52;19.37;;;12.50;;
12896;SDS011;6516;35.028;32.372;2023-01-09T00:06:19;22.45;;;12.65;;
12896;SDS011;6516;35.028;32.372;2023-01-09T00:08:47;20.08;;;12.50;;
12896;SDS011;6516;35.028;32.372;2023-01-09T00:11:15;20.90;;;12.27;;
12896;SDS011;6516;35.028;32.372;2023-01-09T00:13:43;20.80;;;12.68;;
12896;SDS011;6516;35.028;32.372;2023-01-09T00:16:11;19.70;;;12.47;;
12896;SDS011;6516;35.028;32.372;2023-01-09T00:18:41;21.58;;;13.25;;
12896;SDS011;6516;35.028;32.372;2023-01-09T00:21:09;20.17;;;12.65;;
12896;SDS011;6516;35.028;32.372;2023-01-09T00:23:38;21.30;;;12.98;;
12896;SDS011;6516;35.028;32.372;2023-01-09T00:26:07;21.13;;;13.15;;
12896;SDS011;6516;35.028;32.372;2023-01-09T00:28:37;20.10;;;12.30;;
12896;SDS011;6516;35.028;32.372;2023-01-09T00:31:05;20.75;;;12.13;;
12896;SDS011;6516;35.028;32.372;2023-01-09T00:33:38;22.70;;;13.55;;
12896;SDS011;6516;35.028;32.372;2023-01-09T00:36:10;23.45;;;13.30;;
12896;SDS011;6516;35.028;32.372;2023-01-09T00:38:39;20.42;;;12.77;;
12896;SDS011;6516;35.028;32.372;2023-01-09T00:41:07;20.70;;;12.77;;
12896;SDS011;6516;35.028;32.372;2023-01-09T00:43:42;18.98;;;12.18;;
12896;SDS011;6516;35.028;32.372;2023-01-09T00:46:14;18.73;;;11.77;;
12896;SDS011;6516;35.028;32.372;2023-01-09T00:48:44;18.35;;;11.10;;
12896;SDS011;6516;35.028;32.372;2023-01-09T00:51:13;17.15;;;10.38;;
12896;SDS011;6516;35.028;32.372;2023-01-09T00:53:43;20.07;;;11.13;;
12896;SDS011;6516;35.028;32.372;2023-01-09T00:56:12;17.35;;;10.68;;
12896;SDS011;6516;35.028;32.372;2023-01-09T00:58:44;14.25;;;9.30;;
12896;SDS011;6516;35.028;32.372;2023-01-09T01:01:12;15.60;;;9.75;;
12896;SDS011;6516;35.028;32.372;2023-01-09T01:03:40;14.98;;;9.32;;
12896;SDS011;6516;35.028;32.372;2023-01-09T01:06:10;15.30;;;9.67;;
12896;SDS011;6516;35.028;32.372;2023-01-09T01:08:55;14.73;;;9.18;;
12896;SDS011;6516;35.028;32.372;2023-01-09T01:11:22;16.65;;;9.88;;
12896;SDS011;6516;35.028;32.372;2023-01-09T01:13:50;17.83;;;10.52;;
12896;SDS011;6516;35.028;32.372;2023-01-09T01:16:18;14.73;;;9.95;;
12896;SDS011;6516;35.028;32.372;2023-01-09T01:18:46;15.80;;;9.43;;
12896;SDS011;6516;35.028;32.372;2023-01-09T01:21:16;16.13;;;10.70;;
12896;SDS011;6516;35.028;32.372;2023-01-09T01:23:44;15.75;;;10.50;;
12896;SDS011;6516;35.028;32.372;2023-01-09T01:26:13;17.88;;;9.90;;
12896;SDS011;6516;35.028;32.372;2023-01-09T01:28:42;15.82;;;9.65;;
12896;SDS011;6516;35.028;32.372;2023-01-09T01:31:14;14.73;;;9.33;;
12896;SDS011;6516;35.028;32.372;2023-01-09T01:33:44;17.00;;;10.32;;
12896;SDS011;6516;35.028;32.372;2023-01-09T01:36:11;17.08;;;10.30;;
12896;SDS011;6516;35.028;32.372;2023-01-09T01:38:43;17.98;;;10.63;;
12896;SDS011;6516;35.028;32.372;2023-01-09T01:41:12;16.20;;;10.05;;
12896;SDS011;6516;35.028;32.372;2023-01-09T01:43:54;16.50;;;10.30;;
12896;SDS011;6516;35.028;32.372;2023-01-09T01:46:25;17.60;;;11.27;;
12896;SDS011;6516;35.028;32.372;2023-01-09T01:48:54;17.25;;;10.40;;
12896;SDS011;6516;35.028;32.372;2023-01-09T01:51:27;16.58;;;10.45;;
12896;SDS011;6516;35.028;32.372;2023-01-09T01:54:01;17.85;;;10.75;;
12896;SDS011;6516;35.028;32.372;2023-01-09T01:56:35;16.90;;;10.43;;
12896;SDS011;6516;35.028;32.372;2023-01-09T01:59:06;24.35;;;10.88;;
12896;SDS011;6516;35.028;32.372;2023-01-09T02:01:39;15.85;;;9.75;;
12896;SDS011;6516;35.028;32.372;2023-01-09T02:04:11;17.13;;;9.95;;
12896;SDS011;6516;35.028;32.372;2023-01-09T02:06:39;16.75;;;10.40;;
12896;SDS011;6516;35.028;32.372;2023-01-09T02:09:10;17.10;;;10.23;;
12896;SDS011;6516;35.028;32.372;2023-01-09T02:11:43;16.77;;;10.65;;
12896;SDS011;6516;35.028;32.372;2023-01-09T02:14:11;17.50;;;9.75;;
12896;SDS011;6516;35.028;32.372;2023-01-09T02:16:42;15.80;;;9.52;;
12896;SDS011;6516;35.028;32.372;2023-01-09T02:19:26;17.15;;;10.43;;
12896;SDS011;6516;35.028;32.372;2023-01-09T02:22:36;17.60;;;10.50;;
12896;SDS011;6516;35.028;32.372;2023-01-09T02:25:28;16.75;;;10.27;;
12896;SDS011;6516;35.028;32.372;2023-01-09T02:28:27;16.85;;;10.68;;
12896;SDS011;6516;35.028;32.372;2023-01-09T02:31:24;18.52;;;10.88;;
12896;SDS011;6516;35.028;32.372;2023-01-09T02:33:59;19.38;;;10.75;;
12896;SDS011;6516;35.028;32.372;2023-01-09T02:36:34;17.07;;;9.80;;
12896;SDS011;6516;35.028;32.372;2023-01-09T02:39:15;17.20;;;10.48;;
12896;SDS011;6516;35.028;32.372;2023-01-09T02:41:52;17.60;;;11.35;;
12896;SDS011;6516;35.028;32.372;2023-01-09T02:44:30;18.67;;;10.13;;
12896;SDS011;6516;35.028;32.372;2023-01-09T02:47:03;17.40;;;10.63;;
12896;SDS011;6516;35.028;32.372;2023-01-09T02:49:37;16.43;;;10.20;;
12896;SDS011;6516;35.028;32.372;2023-01-09T02:52:13;15.18;;;9.57;;
12896;SDS011;6516;35.028;32.372;2023-01-09T02:54:57;15.55;;;9.95;;
12896;SDS011;6516;35.028;32.372;2023-01-09T02:57:39;17.77;;;10.23;;
12896;SDS011;6516;35.028;32.372;2023-01-09T03:00:23;16.02;;;10.02;;
12896;SDS011;6516;35.028;32.372;2023-01-09T03:03:03;18.63;;;10.03;;
12896;SDS011;6516;35.028;32.372;2023-01-09T03:05:38;17.90;;;10.02;;
12896;SDS011;6516;35.028;32.372;2023-01-09T03:08:12;21.08;;;10.98;;
12896;SDS011;6516;35.028;32.372;2023-01-09T03:10:44;17.70;;;9.43;;
12896;SDS011;6516;35.028;32.372;2023-01-09T03:13:18;20.10;;;10.93;;
12896;SDS011;6516;35.028;32.372;2023-01-09T03:15:49;15.30;;;9.70;;
12896;SDS011;6516;35.028;32.372;2023-01-09T03:18:21;18.45;;;10.25;;
12896;SDS011;6516;35.028;32.372;2023-01-09T03:20:53;16.02;;;10.13;;
12896;SDS011;6516;35.028;32.372;2023-01-09T03:23:21;15.05;;;9.35;;
12896;SDS011;6516;35.028;32.372;2023-01-09T03:25:50;14.73;;;9.55;;
12896;SDS011;6516;35.028;32.372;2023-01-09T03:28:21;17.10;;;10.13;;
12896;SDS011;6516;35.028;32.372;2023-01-09T03:30:54;17.23;;;9.85;;
12896;SDS011;6516;35.028;32.372;2023-01-09T03:33:23;16.95;;;10.02;;
12896;SDS011;6516;35.028;32.372;2023-01-09T03:35:51;17.40;;;10.25;;
12896;SDS011;6516;35.028;32.372;2023-01-09T03:38:18;17.17;;;10.20;;
12896;SDS011;6516;35.028;32.372;2023-01-09T03:40:46;17.00;;;10.13;;
12896;SDS011;6516;35.028;32.372;2023-01-09T03:43:14;16.50;;;10.05;;
12896;SDS011;6516;35.028;32.372;2023-01-09T03:45:41;16.70;;;9.88;;
12896;SDS011;6516;35.028;32.372;2023-01-09T03:48:09;18.10;;;10.10;;
12896;SDS011;6516;35.028;32.372;2023-01-09T03:50:38;16.50;;;10.73;;
12896;SDS011;6516;35.028;32.372;2023-01-09T03:53:10;16.00;;;10.03;;
12896;SDS011;6516;35.028;32.372;2023-01-09T03:55:38;17.08;;;10.05;;
12896;SDS011;6516;35.028;32.372;2023-01-09T03:58:09;16.83;;;10.00;;
12896;SDS011;6516;35.028;32.372;2023-01-09T04:00:37;18.35;;;10.73;;
12896;SDS011;6516;35.028;32.372;2023-01-09T04:03:04;15.18;;;9.82;;
12896;SDS011;6516;35.028;32.372;2023-01-09T04:05:33;15.27;;;9.10;;
12896;SDS011;6516;35.028;32.372;2023-01-09T04:08:03;18.45;;;10.77;;
12896;SDS011;6516;35.028;32.372;2023-01-09T04:10:31;16.38;;;10.10;;
12896;SDS011;6516;35.028;32.372;2023-01-09T04:12:59;16.92;;;9.95;;
12896;SDS011;6516;35.028;32.372;2023-01-09T04:15:27;16.90;;;10.07;;
12896;SDS011;6516;35.028;32.372;2023-01-09T04:17:55;15.83;;;10.07;;
12896;SDS011;6516;35.028;32.372;2023-01-09T04:20:23;17.05;;;9.48;;
12896;SDS011;6516;35.028;32.372;2023-01-09T04:22:50;18.05;;;10.85;;
12896;SDS011;6516;35.028;32.372;2023-01-09T04:25:19;16.35;;;9.98;;
12896;SDS011;6516;35.028;32.372;2023-01-09T04:27:48;16.42;;;9.75;;
12896;SDS011;6516;35.028;32.372;2023-01-09T04:30:15;17.83;;;10.57;;
12896;SDS011;6516;35.028;32.372;2023-01-09T04:32:43;18.15;;;10.32;;
12896;SDS011;6516;35.028;32.372;2023-01-09T04:35:11;17.60;;;10.45;;
12896;SDS011;6516;35.028;32.372;2023-01-09T04:37:39;18.85;;;10.13;;
12896;SDS011;6516;35.028;32.372;2023-01-09T04:40:07;19.55;;;10.95;;
12896;SDS011;6516;35.028;32.372;2023-01-09T04:42:39;16.57;;;10.13;;
12896;SDS011;6516;35.028;32.372;2023-01-09T04:45:08;16.83;;;10.13;;
12896;SDS011;6516;35.028;32.372;2023-01-09T04:47:39;18.15;;;10.35;;
12896;SDS011;6516;35.028;32.372;2023-01-09T04:50:08;18.00;;;10.23;;
12896;SDS011;6516;35.028;32.372;2023-01-09T04:52:36;18.25;;;9.95;;
12896;SDS011;6516;35.028;32.372;2023-01-09T04:55:05;18.50;;;10.63;;
12896;SDS011;6516;35.028;32.372;2023-01-09T04:57:34;16.98;;;10.23;;
12896;SDS011;6516;35.028;32.372;2023-01-09T05:00:05;18.42;;;10.43;;
12896;SDS011;6516;35.028;32.372;2023-01-09T05:02:36;17.52;;;10.10;;
12896;SDS011;6516;35.028;32.372;2023-01-09T05:05:07;15.50;;;9.40;;
12896;SDS011;6516;35.028;32.372;2023-01-09T05:07:35;18.33;;;10.10;;
12896;SDS011;6516;35.028;32.372;2023-01-09T05:10:03;18.70;;;10.35;;
12896;SDS011;6516;35.028;32.372;2023-01-09T05:12:33;19.48;;;10.70;;
12896;SDS011;6516;35.028;32.372;2023-01-09T05:15:00;16.92;;;9.98;;
12896;SDS011;6516;35.028;32.372;2023-01-09T05:17:30;17.05;;;10.10;;
12896;SDS011;6516;35.028;32.372;2023-01-09T05:19:58;19.10;;;10.43;;
12896;SDS011;6516;35.028;32.372;2023-01-09T05:22:25;20.33;;;10.52;;
12896;SDS011;6516;35.028;32.372;2023-01-09T05:24:54;16.60;;;10.30;;
12896;SDS011;6516;35.028;32.372;2023-01-09T05:27:21;19.02;;;10.32;;
12896;SDS011;6516;35.028;32.372;2023-01-09T05:29:49;20.52;;;11.00;;
12896;SDS011;6516;35.028;32.372;2023-01-09T05:32:17;17.27;;;10.30;;
12896;SDS011;6516;35.028;32.372;2023-01-09T05:34:46;17.80;;;10.18;;
12896;SDS011;6516;35.028;32.372;2023-01-09T05:37:14;17.23;;;10.27;;
12896;SDS011;6516;35.028;32.372;2023-01-09T05:39:41;18.55;;;9.45;;
12896;SDS011;6516;35.028;32.372;2023-01-09T05:42:09;18.83;;;9.90;;
12896;SDS011;6516;35.028;32.372;2023-01-09T05:44:37;16.10;;;9.57;;
12896;SDS011;6516;35.028;32.372;2023-01-09T05:47:07;16.33;;;9.82;;
12896;SDS011;6516;35.028;32.372;2023-01-09T05:49:35;18.10;;;9.55;;
12896;SDS011;6516;35.028;32.372;2023-01-09T05:52:04;15.90;;;9.63;;
12896;SDS011;6516;35.028;32.372;2023-01-09T05:54:33;15.65;;;9.70;;
12896;SDS011;6516;35.028;32.372;2023-01-09T05:57:00;16.50;;;9.90;;
12896;SDS011;6516;35.028;32.372;2023-01-09T05:59:28;16.85;;;9.98;;
12896;SDS011;6516;35.028;32.372;2023-01-09T06:01:56;14.75;;;9.25;;
12896;SDS011;6516;35.028;32.372;2023-01-09T06:04:24;15.18;;;9.20;;
12896;SDS011;6516;35.028;32.372;2023-01-09T06:06:54;13.98;;;9.15;;
12896;SDS011;6516;35.028;32.372;2023-01-09T06:09:23;15.93;;;8.97;;
12896;SDS011;6516;35.028;32.372;2023-01-09T06:11:51;15.90;;;8.80;;
12896;SDS011;6516;35.028;32.372;2023-01-09T06:14:19;15.25;;;8.85;;
12896;SDS011;6516;35.028;32.372;2023-01-09T06:16:47;14.45;;;9.32;;
12896;SDS011;6516;35.028;32.372;2023-01-09T06:19:15;15.80;;;9.40;;
12896;SDS011;6516;35.028;32.372;2023-01-09T06:21:43;13.20;;;8.40;;
12896;SDS011;6516;35.028;32.372;2023-01-09T06:24:11;15.98;;;9.10;;
12896;SDS011;6516;35.028;32.372;2023-01-09T06:26:40;14.63;;;8.63;;
12896;SDS011;6516;35.028;32.372;2023-01-09T06:29:13;12.43;;;7.90;;
12896;SDS011;6516;35.028;32.372;2023-01-09T06:31:44;12.63;;;7.70;;
12896;SDS011;6516;35.028;32.372;2023-01-09T06:34:12;15.33;;;8.33;;
12896;SDS011;6516;35.028;32.372;2023-01-09T06:36:40;14.50;;;8.75;;
12896;SDS011;6516;35.028;32.372;2023-01-09T06:39:07;13.35;;;7.78;;
12896;SDS011;6516;35.028;32.372;2023-01-09T06:41:35;11.35;;;7.40;;
12896;SDS011;6516;35.028;32.372;2023-01-09T06:44:04;12.30;;;7.88;;
12896;SDS011;6516;35.028;32.372;2023-01-09T06:46:32;13.83;;;8.30;;
12896;SDS011;6516;35.028;32.372;2023-01-09T06:49:00;13.90;;;7.82;;
12896;SDS011;6516;35.028;32.372;2023-01-09T06:51:28;13.90;;;8.85;;
12896;SDS011;6516;35.028;32.372;2023-01-09T06:53:56;13.13;;;8.57;;
12896;SDS011;6516;35.028;32.372;2023-01-09T06:56:24;13.90;;;8.45;;
12896;SDS011;6516;35.028;32.372;2023-01-09T06:58:52;12.97;;;7.90;;
12896;SDS011;6516;35.028;32.372;2023-01-09T07:01:21;11.75;;;7.25;;
12896;SDS011;6516;35.028;32.372;2023-01-09T07:03:49;14.50;;;7.72;;
12896;SDS011;6516;35.028;32.372;2023-01-09T07:06:16;12.45;;;7.63;;
12896;SDS011;6516;35.028;32.372;2023-01-09T07:08:45;11.57;;;7.65;;
12896;SDS011;6516;35.028;32.372;2023-01-09T07:11:13;13.27;;;7.80;;
12896;SDS011;6516;35.028;32.372;2023-01-09T07:13:40;12.90;;;7.57;;
12896;SDS011;6516;35.028;32.372;2023-01-09T07:16:08;12.88;;;7.85;;
12896;SDS011;6516;35.028;32.372;2023-01-09T07:18:37;12.82;;;8.40;;
12896;SDS011;6516;35.028;32.372;2023-01-09T07:21:05;14.85;;;7.82;;
12896;SDS011;6516;35.028;32.372;2023-01-09T07:23:34;11.87;;;7.73;;
12896;SDS011;6516;35.028;32.372;2023-01-09T07:26:02;12.13;;;7.55;;
12896;SDS011;6516;35.028;32.372;2023-01-09T07:28:30;11.30;;;7.47;;
12896;SDS011;6516;35.028;32.372;2023-01-09T07:30:58;13.13;;;7.75;;
12896;SDS011;6516;35.028;32.372;2023-01-09T07:33:29;12.27;;;8.02;;
12896;SDS011;6516;35.028;32.372;2023-01-09T07:35:58;13.07;;;8.43;;
12896;SDS011;6516;35.028;32.372;2023-01-09T07:38:26;13.25;;;8.68;;
12896;SDS011;6516;35.028;32.372;2023-01-09T07:40:53;12.38;;;7.88;;
12896;SDS011;6516;35.028;32.372;2023-01-09T07:43:22;10.77;;;7.65;;
12896;SDS011;6516;35.028;32.372;2023-01-09T07:45:50;14.63;;;8.32;;
12896;SDS011;6516;35.028;32.372;2023-01-09T07:48:17;13.10;;;7.83;;
12896;SDS011;6516;35.028;32.372;2023-01-09T07:50:45;11.50;;;7.43;;
12896;SDS011;6516;35.028;32.372;2023-01-09T07:53:14;13.95;;;9.05;;
12896;SDS011;6516;35.028;32.372;2023-01-09T07:55:42;12.38;;;8.18;;
12896;SDS011;6516;35.028;32.372;2023-01-09T07:58:10;13.63;;;8.00;;
12896;SDS011;6516;35.028;32.372;2023-01-09T08:00:37;12.20;;;7.70;;
12896;SDS011;6516;35.028;32.372;2023-01-09T08:03:05;16.88;;;9.32;;
12896;SDS011;6516;35.028;32.372;2023-01-09T08:05:33;14.63;;;8.82;;
12896;SDS011;6516;35.028;32.372;2023-01-09T08:08:01;11.57;;;8.20;;
12896;SDS011;6516;35.028;32.372;2023-01-09T08:10:30;12.77;;;8.77;;
12896;SDS011;6516;35.028;32.372;2023-01-09T08:12:58;12.53;;;7.87;;
12896;SDS011;6516;35.028;32.372;2023-01-09T08:15:26;12.48;;;7.88;;
12896;SDS011;6516;35.028;32.372;2023-01-09T08:17:55;12.95;;;8.38;;
12896;SDS011;6516;35.028;32.372;2023-01-09T08:20:22;13.02;;;8.73;;
12896;SDS011;6516;35.028;32.372;2023-01-09T08:22:51;13.98;;;8.00;;
12896;SDS011;6516;35.028;32.372;2023-01-09T08:25:19;14.27;;;7.77;;
12896;SDS011;6516;35.028;32.372;2023-01-09T08:27:48;12.90;;;8.73;;
12896;SDS011;6516;35.028;32.372;2023-01-09T08:30:17;13.30;;;7.85;;
12896;SDS011;6516;35.028;32.372;2023-01-09T08:32:47;13.18;;;7.70;;
12896;SDS011;6516;35.028;32.372;2023-01-09T08:35:16;12.05;;;7.50;;
12896;SDS011;6516;35.028;32.372;2023-01-09T08:37:45;12.70;;;8.07;;
12896;SDS011;6516;35.028;32.372;2023-01-09T08:40:13;12.63;;;8.32;;
12896;SDS011;6516;35.028;32.372;2023-01-09T08:42:42;12.70;;;8.15;;
12896;SDS011;6516;35.028;32.372;2023-01-09T08:45:31;12.80;;;7.45;;
12896;SDS011;6516;35.028;32.372;2023-01-09T08:48:17;12.30;;;8.40;;
12896;SDS011;6516;35.028;32.372;2023-01-09T08:50:45;13.57;;;7.97;;
12896;SDS011;6516;35.028;32.372;2023-01-09T08:53:13;13.05;;;8.00;;
12896;SDS011;6516;35.028;32.372;2023-01-09T08:55:41;12.43;;;7.20;;
12896;SDS011;6516;35.028;32.372;2023-01-09T08:58:09;11.68;;;7.43;;
12896;SDS011;6516;35.028;32.372;2023-01-09T09:00:38;11.77;;;7.75;;
12896;SDS011;6516;35.028;32.372;2023-01-09T09:03:07;12.07;;;7.40;;
12896;SDS011;6516;35.028;32.372;2023-01-09T09:05:37;14.88;;;7.78;;
12896;SDS011;6516;35.028;32.372;2023-01-09T09:08:04;11.13;;;7.60;;
12896;SDS011;6516;35.028;32.372;2023-01-09T09:10:32;14.40;;;7.57;;
12896;SDS011;6516;35.028;32.372;2023-01-09T09:13:00;13.15;;;7.90;;
12896;SDS011;6516;35.028;32.372;2023-01-09T09:15:28;15.87;;;8.17;;
12896;SDS011;6516;35.028;32.372;2023-01-09T09:17:58;15.43;;;8.60;;
12896;SDS011;6516;35.028;32.372;2023-01-09T09:20:28;13.65;;;7.68;;
12896;SDS011;6516;35.028;32.372;2023-01-09T09:22:58;13.50;;;7.70;;
12896;SDS011;6516;35.028;32.372;2023-01-09T09:25:28;14.15;;;7.90;;
12896;SDS011;6516;35.028;32.372;2023-01-09T09:27:56;12.57;;;7.47;;
12896;SDS011;6516;35.028;32.372;2023-01-09T09:30:25;12.27;;;7.55;;
12896;SDS011;6516;35.028;32.372;2023-01-09T09:32:53;12.40;;;7.47;;
12896;SDS011;6516;35.028;32.372;2023-01-09T09:35:22;12.65;;;7.28;;
12896;SDS011;6516;35.028;32.372;2023-01-09T09:37:53;12.95;;;7.10;;
12896;SDS011;6516;35.028;32.372;2023-01-09T09:40:26;12.60;;;7.20;;
12896;SDS011;6516;35.028;32.372;2023-01-09T09:46:39;11.15;;;6.70;;
12896;SDS011;6516;35.028;32.372;2023-01-09T09:49:15;11.43;;;7.13;;
12896;SDS011;6516;35.028;32.372;2023-01-09T09:51:57;11.85;;;6.63;;
12896;SDS011;6516;35.028;32.372;2023-01-09T09:54:32;12.87;;;6.70;;
12896;SDS011;6516;35.028;32.372;2023-01-09T09:57:05;12.27;;;6.85;;
12896;SDS011;6516;35.028;32.372;2023-01-09T09:59:42;11.93;;;6.40;;
12896;SDS011;6516;35.028;32.372;2023-01-09T10:02:22;12.75;;;6.65;;
12896;SDS011;6516;35.028;32.372;2023-01-09T10:04:56;11.00;;;6.88;;
12896;SDS011;6516;35.028;32.372;2023-01-09T10:07:29;12.43;;;6.53;;
12896;SDS011;6516;35.028;32.372;2023-01-09T10:10:08;15.02;;;7.22;;
12896;SDS011;6516;35.028;32.372;2023-01-09T10:12:44;12.52;;;7.00;;
12896;SDS011;6516;35.028;32.372;2023-01-09T10:15:22;12.85;;;6.75;;
12896;SDS011;6516;35.028;32.372;2023-01-09T10:18:13;10.30;;;6.13;;
12896;SDS011;6516;35.028;32.372;2023-01-09T10:20:54;11.03;;;6.33;;
12896;SDS011;6516;35.028;32.372;2023-01-09T10:23:32;11.68;;;6.60;;
12896;SDS011;6516;35.028;32.372;2023-01-09T10:26:24;11.57;;;6.70;;
12896;SDS011;6516;35.028;32.372;2023-01-09T10:38:07;9.55;;;5.80;;
12896;SDS011;6516;35.028;32.372;2023-01-09T10:40:44;10.70;;;6.30;;
12896;SDS011;6516;35.028;32.372;2023-01-09T10:43:19;11.90;;;6.03;;
12896;SDS011;6516;35.028;32.372;2023-01-09T10:45:57;11.45;;;5.97;;
12896;SDS011;6516;35.028;32.372;2023-01-09T10:48:30;12.17;;;5.83;;
12896;SDS011;6516;35.028;32.372;2023-01-09T10:51:00;11.85;;;6.00;;
12896;SDS011;6516;35.028;32.372;2023-01-09T10:53:32;10.38;;;6.07;;
12896;SDS011;6516;35.028;32.372;2023-01-09T10:56:07;10.77;;;5.35;;
12896;SDS011;6516;35.028;32.372;2023-01-09T10:58:43;10.70;;;5.82;;
12896;SDS011;6516;35.028;32.372;2023-01-09T11:01:11;11.17;;;5.50;;
12896;SDS011;6516;35.028;32.372;2023-01-09T11:03:39;9.20;;;5.20;;
12896;SDS011;6516;35.028;32.372;2023-01-09T11:06:13;8.85;;;5.20;;
12896;SDS011;6516;35.028;32.372;2023-01-09T11:08:48;10.98;;;5.60;;
12896;SDS011;6516;35.028;32.372;2023-01-09T11:11:31;9.52;;;5.57;;
12896;SDS011;6516;35.028;32.372;2023-01-09T11:14:04;9.40;;;5.60;;
12896;SDS011;6516;35.028;32.372;2023-01-09T11:16:49;10.50;;;5.82;;
12896;SDS011;6516;35.028;32.372;2023-01-09T11:19:18;11.73;;;5.68;;
12896;SDS011;6516;35.028;32.372;2023-01-09T11:21:46;10.30;;;5.60;;
12896;SDS011;6516;35.028;32.372;2023-01-09T11:24:24;8.95;;;5.38;;
12896;SDS011;6516;35.028;32.372;2023-01-09T11:32:44;9.90;;;5.95;;
12896;SDS011;6516;35.028;32.372;2023-01-09T11:35:20;10.63;;;5.10;;
12896;SDS011;6516;35.028;32.372;2023-01-09T11:38:03;11.18;;;5.28;;
12896;SDS011;6516;35.028;32.372;2023-01-09T11:40:36;12.73;;;5.40;;
12896;SDS011;6516;35.028;32.372;2023-01-09T11:43:15;10.25;;;4.97;;
12896;SDS011;6516;35.028;32.372;2023-01-09T11:45:55;11.10;;;5.40;;
12896;SDS011;6516;35.028;32.372;2023-01-09T11:48:27;12.55;;;5.13;;
12896;SDS011;6516;35.028;32.372;2023-01-09T11:51:02;10.60;;;5.43;;
12896;SDS011;6516;35.028;32.372;2023-01-09T11:53:42;8.97;;;5.20;;
12896;SDS011;6516;35.028;32.372;2023-01-09T11:56:19;9.57;;;4.80;;
12896;SDS011;6516;35.028;32.372;2023-01-09T11:58:49;8.65;;;4.78;;
12896;SDS011;6516;35.028;32.372;2023-01-09T12:01:23;9.45;;;4.82;;
12896;SDS011;6516;35.028;32.372;2023-01-09T12:04:27;9.18;;;4.97;;
12896;SDS011;6516;35.028;32.372;2023-01-09T12:10:22;7.75;;;4.45;;
12896;SDS011;6516;35.028;32.372;2023-01-09T12:13:14;8.98;;;4.93;;
12896;SDS011;6516;35.028;32.372;2023-01-09T12:15:59;9.93;;;5.00;;
12896;SDS011;6516;35.028;32.372;2023-01-09T12:18:39;9.07;;;4.10;;
12896;SDS011;6516;35.028;32.372;2023-01-09T12:21:25;7.30;;;3.93;;
12896;SDS011;6516;35.028;32.372;2023-01-09T12:24:14;9.75;;;4.45;;
12896;SDS011;6516;35.028;32.372;2023-01-09T12:27:02;8.00;;;4.53;;
12896;SDS011;6516;35.028;32.372;2023-01-09T12:29:46;8.15;;;4.07;;
12896;SDS011;6516;35.028;32.372;2023-01-09T12:32:38;9.70;;;4.63;;
12896;SDS011;6516;35.028;32.372;2023-01-09T12:35:22;11.70;;;4.47;;
12896;SDS011;6516;35.028;32.372;2023-01-09T12:38:06;8.77;;;4.32;;
12896;SDS011;6516;35.028;32.372;2023-01-09T12:41:06;9.82;;;4.30;;
12896;SDS011;6516;35.028;32.372;2023-01-09T12:43:58;8.35;;;3.70;;
12896;SDS011;6516;35.028;32.372;2023-01-09T12:46:42;7.68;;;4.00;;
12896;SDS011;6516;35.028;32.372;2023-01-09T12:49:27;11.60;;;4.10;;
12896;SDS011;6516;35.028;32.372;2023-01-09T12:52:02;13.13;;;4.65;;
12896;SDS011;6516;35.028;32.372;2023-01-09T12:54:36;9.20;;;4.15;;
12896;SDS011;6516;35.028;32.372;2023-01-09T12:57:13;9.65;;;4.38;;
12896;SDS011;6516;35.028;32.372;2023-01-09T12:59:48;11.48;;;4.65;;
12896;SDS011;6516;35.028;32.372;2023-01-09T13:02:22;8.77;;;4.10;;
12896;SDS011;6516;35.028;32.372;2023-01-09T13:04:58;9.50;;;4.50;;
12896;SDS011;6516;35.028;32.372;2023-01-09T13:07:34;8.55;;;4.32;;
12896;SDS011;6516;35.028;32.372;2023-01-09T13:10:14;9.88;;;4.95;;
12896;SDS011;6516;35.028;32.372;2023-01-09T13:12:51;9.45;;;4.75;;
12896;SDS011;6516;35.028;32.372;2023-01-09T13:15:24;8.47;;;4.90;;
12896;SDS011;6516;35.028;32.372;2023-01-09T13:17:57;13.23;;;7.13;;
12896;SDS011;6516;35.028;32.372;2023-01-09T13:20:35;22.42;;;11.93;;
12896;SDS011;6516;35.028;32.372;2023-01-09T13:23:11;18.70;;;11.13;;
12896;SDS011;6516;35.028;32.372;2023-01-09T13:25:47;17.23;;;9.63;;
12896;SDS011;6516;35.028;32.372;2023-01-09T13:28:17;12.73;;;5.80;;
12896;SDS011;6516;35.028;32.372;2023-01-09T13:31:01;13.95;;;5.53;;
12896;SDS011;6516;35.028;32.372;2023-01-09T13:33:53;10.80;;;5.00;;
12896;SDS011;6516;35.028;32.372;2023-01-09T13:36:26;11.02;;;5.25;;
12896;SDS011;6516;35.028;32.372;2023-01-09T13:38:57;12.27;;;5.30;;
12896;SDS011;6516;35.028;32.372;2023-01-09T13:41:26;14.63;;;6.63;;
12896;SDS011;6516;35.028;32.372;2023-01-09T13:44:20;13.70;;;6.38;;
12896;SDS011;6516;35.028;32.372;2023-01-09T13:46:53;13.43;;;7.18;;
12896;SDS011;6516;35.028;32.372;2023-01-09T13:49:31;13.55;;;5.20;;
12896;SDS011;6516;35.028;32.372;2023-01-09T13:52:28;10.18;;;5.60;;
12896;SDS011;6516;35.028;32.372;2023-01-09T14:00:53;11.65;;;5.57;;
12896;SDS011;6516;35.028;32.372;2023-01-09T14:03:28;10.90;;;5.18;;
12896;SDS011;6516;35.028;32.372;2023-01-09T14:06:07;11.05;;;5.38;;
12896;SDS011;6516;35.028;32.372;2023-01-09T14:08:46;10.83;;;5.20;;
12896;SDS011;6516;35.028;32.372;2023-01-09T14:11:25;11.60;;;6.07;;
12896;SDS011;6516;35.028;32.372;2023-01-09T14:14:03;11.00;;;5.60;;
12896;SDS011;6516;35.028;32.372;2023-01-09T14:16:44;12.05;;;5.00;;
12896;SDS011;6516;35.028;32.372;2023-01-09T14:19:24;12.60;;;6.63;;
12896;SDS011;6516;35.028;32.372;2023-01-09T14:22:01;11.50;;;5.87;;
12896;SDS011;6516;35.028;32.372;2023-01-09T14:24:31;10.63;;;5.30;;
12896;SDS011;6516;35.028;32.372;2023-01-09T14:27:08;10.73;;;5.32;;
12896;SDS011;6516;35.028;32.372;2023-01-09T14:30:36;10.70;;;4.97;;
12896;SDS011;6516;35.028;32.372;2023-01-09T14:35:53;9.63;;;5.20;;
12896;SDS011;6516;35.028;32.372;2023-01-09T14:38:36;9.65;;;5.10;;
12896;SDS011;6516;35.028;32.372;2023-01-09T14:41:16;9.95;;;6.10;;
12896;SDS011;6516;35.028;32.372;2023-01-09T14:44:13;10.85;;;5.45;;
12896;SDS011;6516;35.028;32.372;2023-01-09T14:46:53;8.98;;;4.88;;
12896;SDS011;6516;35.028;32.372;2023-01-09T14:49:33;10.27;;;5.53;;
12896;SDS011;6516;35.028;32.372;2023-01-09T14:52:12;11.15;;;5.85;;
12896;SDS011;6516;35.028;32.372;2023-01-09T14:54:49;9.32;;;5.40;;
12896;SDS011;6516;35.028;32.372;2023-01-09T14:57:21;10.45;;;5.40;;
12896;SDS011;6516;35.028;32.372;2023-01-09T14:59:57;13.20;;;5.38;;
12896;SDS011;6516;35.028;32.372;2023-01-09T15:02:27;12.27;;;5.20;;
12896;SDS011;6516;35.028;32.372;2023-01-09T15:04:58;9.48;;;5.30;;
12896;SDS011;6516;35.028;32.372;2023-01-09T15:07:30;9.55;;;5.35;;
12896;SDS011;6516;35.028;32.372;2023-01-09T15:10:10;10.38;;;6.00;;
12896;SDS011;6516;35.028;32.372;2023-01-09T15:12:45;12.15;;;6.22;;
12896;SDS011;6516;35.028;32.372;2023-01-09T15:15:16;11.67;;;6.23;;
12896;SDS011;6516;35.028;32.372;2023-01-09T15:17:48;12.95;;;6.63;;
12896;SDS011;6516;35.028;32.372;2023-01-09T15:20:21;11.63;;;6.55;;
12896;SDS011;6516;35.028;32.372;2023-01-09T15:22:52;11.00;;;6.72;;
12896;SDS011;6516;35.028;32.372;2023-01-09T15:25:23;11.30;;;7.60;;
12896;SDS011;6516;35.028;32.372;2023-01-09T15:27:53;12.73;;;7.10;;
12896;SDS011;6516;35.028;32.372;2023-01-09T15:30:24;13.43;;;7.05;;
12896;SDS011;6516;35.028;32.372;2023-01-09T15:32:58;11.07;;;7.00;;
12896;SDS011;6516;35.028;32.372;2023-01-09T15:35:29;11.85;;;7.50;;
12896;SDS011;6516;35.028;32.372;2023-01-09T15:37:58;10.63;;;6.07;;